createdAt,value
2019-01-08T00:04:50.943Z,101434.41
2019-01-08T00:09:43.860Z,101426.49
2019-01-08T00:14:36.827Z,101416.81
2019-01-08T00:19:29.705Z,101428.77
2019-01-08T00:24:22.570Z,101408.72
2019-01-08T00:29:15.439Z,101381.63
2019-01-08T00:34:08.357Z,101394.73
2019-01-08T00:39:01.223Z,101378.27
2019-01-08T00:43:54.128Z,101387.39
2019-01-08T00:48:47.038Z,101379.81
2019-01-08T00:53:40.055Z,101374.36
2019-01-08T00:58:33.039Z,101351.25
2019-01-08T01:03:25.935Z,101392.97
2019-01-08T01:08:18.834Z,101405.09
2019-01-08T01:13:11.749Z,101404.88
2019-01-08T01:18:04.588Z,101390.02
2019-01-08T01:22:57.477Z,101392.00
2019-01-08T01:27:50.361Z,101387.88
2019-01-08T01:32:43.281Z,101391.20
2019-01-08T01:37:36.186Z,101383.20
2019-01-08T01:42:29.098Z,101391.96
2019-01-08T01:47:21.984Z,101386.06
2019-01-08T01:52:14.895Z,101384.61
2019-01-08T01:57:07.780Z,101377.10
2019-01-08T02:02:00.831Z,101371.77
2019-01-08T02:06:53.660Z,101382.14
2019-01-08T02:11:46.587Z,101383.55
2019-01-08T02:16:39.441Z,101380.94
2019-01-08T02:21:32.374Z,101383.41
2019-01-08T02:26:25.230Z,101388.08
2019-01-08T02:31:18.124Z,101389.18
2019-01-08T02:36:12.828Z,101389.52
2019-01-08T02:41:05.673Z,101389.94
2019-01-08T02:45:58.633Z,101376.24
2019-01-08T02:50:51.677Z,101383.92
2019-01-08T02:55:44.531Z,101378.36
2019-01-08T03:00:37.419Z,101361.88
2019-01-08T03:05:30.303Z,101353.69
2019-01-08T03:10:23.355Z,101354.33
2019-01-08T03:15:16.384Z,101347.50
2019-01-08T03:20:09.246Z,101343.50
2019-01-08T03:25:02.146Z,101331.05
2019-01-08T03:29:54.999Z,101334.39
2019-01-08T03:34:48.042Z,101322.61
2019-01-08T03:39:40.971Z,101323.66
2019-01-08T03:44:34.925Z,101321.95
2019-01-08T03:49:27.814Z,101319.38
2019-01-08T03:54:20.723Z,101307.44
2019-01-08T03:59:13.579Z,101305.25
2019-01-08T04:04:06.437Z,101299.44
2019-01-08T04:08:59.320Z,101302.31
2019-01-08T04:13:53.283Z,101300.12
2019-01-08T04:18:46.240Z,101297.00
2019-01-08T04:23:39.207Z,101292.70
2019-01-08T04:28:32.111Z,101280.50
2019-01-08T04:33:25.002Z,101272.30
2019-01-08T04:38:17.954Z,101268.16
2019-01-08T04:43:10.854Z,101266.77
2019-01-08T04:48:04.723Z,101262.75
2019-01-08T04:52:57.584Z,101260.14
2019-01-08T04:57:50.462Z,101248.38
2019-01-08T05:02:43.397Z,101239.25
2019-01-08T05:07:36.358Z,101233.87
2019-01-08T05:12:29.203Z,101223.95
2019-01-08T05:17:22.187Z,101219.95
2019-01-08T05:22:15.058Z,101219.80
2019-01-08T05:27:08.008Z,101208.23
2019-01-08T05:32:00.991Z,101211.69
2019-01-08T05:36:53.871Z,101200.80
2019-01-08T05:41:46.713Z,101200.91
2019-01-08T05:46:39.552Z,101184.38
2019-01-08T05:51:32.499Z,101177.38
2019-01-08T05:56:25.403Z,101174.89
2019-01-08T06:01:18.579Z,101168.78
2019-01-08T06:06:11.765Z,101156.05
2019-01-08T06:11:04.756Z,101155.45
2019-01-08T06:15:57.683Z,101145.20
2019-01-08T06:20:50.823Z,101140.08
2019-01-08T06:25:43.762Z,101141.82
2019-01-08T06:30:36.685Z,101134.09
2019-01-08T06:35:29.641Z,101128.38
2019-01-08T06:40:22.735Z,101116.27
2019-01-08T06:45:15.687Z,101103.42
2019-01-08T06:50:09.137Z,101103.28
2019-01-08T06:55:02.190Z,101114.01
2019-01-08T06:59:55.029Z,101101.30
2019-01-08T07:04:47.877Z,101098.46
2019-01-08T07:09:40.720Z,101101.08
2019-01-08T07:14:33.622Z,101100.48
2019-01-08T07:19:26.564Z,101097.75
2019-01-08T07:24:19.435Z,101094.90
2019-01-08T07:29:12.308Z,101120.50
2019-01-08T07:34:05.220Z,101109.30
2019-01-08T07:38:58.103Z,101113.09
2019-01-08T07:43:51.063Z,101103.59
2019-01-08T07:48:43.952Z,101107.02
2019-01-08T07:53:36.823Z,101109.38
2019-01-08T07:58:30.933Z,101107.66
2019-01-08T08:03:23.929Z,101102.83
2019-01-08T08:08:16.828Z,101103.08
2019-01-08T08:13:11.385Z,101100.42
2019-01-08T08:18:04.277Z,101107.77
2019-01-08T08:22:57.224Z,101120.92
2019-01-08T08:27:50.137Z,101109.44
2019-01-08T08:32:43.302Z,101108.42
2019-01-08T08:37:36.241Z,101102.30
2019-01-08T08:42:29.257Z,101094.43
2019-01-08T08:47:22.463Z,101096.16
2019-01-08T08:52:15.338Z,101087.03
2019-01-08T08:57:08.311Z,101083.99
2019-01-08T09:02:01.374Z,101086.42
2019-01-08T09:06:54.321Z,101078.07
2019-01-08T09:11:47.470Z,101074.13
2019-01-08T09:16:40.402Z,101064.64
2019-01-08T09:21:33.485Z,101076.03
2019-01-08T09:26:26.493Z,101076.52
2019-01-08T09:31:19.543Z,101077.55
2019-01-08T09:36:12.542Z,101081.05
2019-01-08T09:41:05.484Z,101073.37
2019-01-08T09:45:58.546Z,101066.55
2019-01-08T09:50:51.558Z,101072.17
2019-01-08T09:55:44.515Z,101071.90
2019-01-08T10:00:37.486Z,101071.30
2019-01-08T10:05:30.350Z,101072.69
2019-01-08T10:10:23.473Z,101050.84
2019-01-08T10:15:16.406Z,101062.83
2019-01-08T10:20:09.526Z,101060.73
2019-01-08T10:25:02.815Z,101050.56
2019-01-08T10:29:57.019Z,101059.34
2019-01-08T10:34:50.153Z,101049.88
2019-01-08T10:39:43.166Z,101041.47
2019-01-08T10:44:39.078Z,101022.91
2019-01-08T10:49:32.113Z,101003.51
2019-01-08T10:54:25.073Z,101012.02
2019-01-08T10:59:18.152Z,101033.89
2019-01-08T11:04:11.519Z,101030.30
2019-01-08T11:09:06.490Z,101012.61
2019-01-08T11:13:59.346Z,101010.72
2019-01-08T11:18:52.518Z,101026.81
2019-01-08T11:23:45.440Z,101006.05
2019-01-08T11:28:38.542Z,101000.79
2019-01-08T11:33:31.619Z,101000.31
2019-01-08T11:38:24.543Z,100981.77
2019-01-08T11:43:17.663Z,100992.95
2019-01-08T11:48:12.805Z,100987.05
2019-01-08T11:53:05.757Z,100974.03
2019-01-08T11:57:58.700Z,100966.47
2019-01-08T12:02:51.814Z,100964.61
2019-01-08T12:07:44.775Z,100966.95
2019-01-08T12:12:37.759Z,100957.55
2019-01-08T12:17:30.771Z,100955.39
2019-01-08T12:22:25.007Z,100944.24
2019-01-08T12:27:17.855Z,100953.58
2019-01-08T12:32:10.868Z,100946.33
2019-01-08T12:37:03.722Z,100950.60
2019-01-08T12:41:58.150Z,100961.80
2019-01-08T12:46:51.083Z,100965.31
2019-01-08T12:51:44.240Z,100969.12
2019-01-08T12:56:37.206Z,100970.95
2019-01-08T13:01:30.192Z,100982.94
2019-01-08T13:06:23.167Z,100999.78
2019-01-08T13:11:16.186Z,100977.28
2019-01-08T13:16:10.500Z,100973.50
2019-01-08T13:21:03.448Z,100977.72
2019-01-08T13:25:56.468Z,100968.47
2019-01-08T13:30:49.500Z,100970.17
2019-01-08T13:35:42.619Z,100989.50
2019-01-08T13:40:35.542Z,100971.22
2019-01-08T13:45:28.523Z,100965.84
2019-01-08T13:50:21.499Z,100962.48
2019-01-08T13:55:14.434Z,100959.30
2019-01-08T14:00:08.142Z,100983.81
2019-01-08T14:05:01.206Z,101010.72
2019-01-08T14:09:54.122Z,101026.12
2019-01-08T14:14:47.066Z,101031.97
2019-01-08T14:19:39.968Z,101017.71
2019-01-08T14:24:32.935Z,101034.70
2019-01-08T14:29:26.110Z,101019.55
2019-01-08T14:34:20.795Z,101003.41
2019-01-08T14:39:13.673Z,101026.29
2019-01-08T14:44:06.602Z,101033.66
2019-01-08T14:48:59.540Z,101025.70
2019-01-08T14:53:52.396Z,101020.36
2019-01-08T14:58:45.371Z,101016.91
2019-01-08T15:03:38.201Z,101017.64
2019-01-08T15:08:31.099Z,101002.67
2019-01-08T15:13:23.990Z,100993.89
2019-01-08T15:18:17.119Z,100986.66
2019-01-08T15:23:09.958Z,100994.61
2019-01-08T15:28:02.981Z,100994.35
2019-01-08T15:32:58.319Z,100989.57
2019-01-08T15:37:50.917Z,101033.95
2019-01-08T15:42:43.817Z,101066.45
2019-01-08T15:47:36.859Z,101072.91
2019-01-08T15:52:29.804Z,101073.59
2019-01-08T15:57:22.732Z,101077.87
2019-01-08T16:02:15.778Z,101086.90
2019-01-08T16:07:08.719Z,101091.94
2019-01-08T16:12:01.644Z,101085.61
2019-01-08T16:16:54.556Z,101089.64
2019-01-08T16:21:47.440Z,101084.39
2019-01-08T16:26:40.313Z,101094.44
2019-01-08T16:31:33.752Z,101068.41
2019-01-08T16:36:27.063Z,101064.30
2019-01-08T16:41:19.962Z,101058.23
2019-01-08T16:46:13.197Z,101056.83
2019-01-08T16:51:06.080Z,101056.94
2019-01-08T16:55:59.012Z,101056.58
2019-01-08T17:00:52.024Z,101062.18
2019-01-08T17:05:45.958Z,101055.93
2019-01-08T17:10:40.650Z,101056.91
2019-01-08T17:15:34.077Z,101068.84
2019-01-08T17:20:27.181Z,101052.36
2019-01-08T17:25:20.164Z,101063.20
2019-01-08T17:30:13.157Z,101058.78
2019-01-08T17:35:06.763Z,101063.41
2019-01-08T17:39:59.697Z,101064.14
2019-01-08T17:44:53.530Z,101067.22
2019-01-08T17:49:46.817Z,101061.56
2019-01-08T17:54:39.737Z,101067.66
2019-01-08T17:59:41.967Z,101065.50
2019-01-08T18:04:35.039Z,101047.47
2019-01-08T18:09:29.740Z,101054.50
2019-01-08T18:14:22.717Z,101057.45
2019-01-08T18:19:15.649Z,101057.70
2019-01-08T18:24:08.541Z,101056.83
2019-01-08T18:29:01.454Z,101067.89
2019-01-08T18:33:54.624Z,101075.00
2019-01-08T18:38:47.567Z,101063.14
2019-01-08T18:43:40.438Z,101071.05
2019-01-08T18:48:33.339Z,101075.84
2019-01-08T18:53:26.228Z,101082.81
2019-01-08T18:58:19.271Z,101067.66
2019-01-08T19:03:12.238Z,101073.14
2019-01-08T19:08:05.147Z,101098.49
2019-01-08T19:12:58.017Z,101078.33
2019-01-08T19:17:50.905Z,101035.75
2019-01-08T19:22:43.956Z,101086.86
2019-01-08T19:27:36.967Z,101079.59
2019-01-08T19:32:29.882Z,101081.33
2019-01-08T19:37:22.746Z,101080.87
2019-01-08T19:42:16.255Z,101077.61
2019-01-08T19:47:09.200Z,101070.00
2019-01-08T19:52:03.189Z,101049.34
2019-01-08T19:56:56.062Z,101073.09
2019-01-08T20:01:49.137Z,101067.29
2019-01-08T20:06:42.190Z,101084.27
2019-01-08T20:11:35.198Z,101095.38
2019-01-08T20:16:28.463Z,101095.55
2019-01-08T20:21:21.463Z,101092.20
2019-01-08T20:26:14.685Z,101098.78
2019-01-08T20:31:09.438Z,101102.14
2019-01-08T20:36:03.649Z,101107.80
2019-01-08T20:40:56.562Z,101100.73
2019-01-08T20:45:49.551Z,101112.46
2019-01-08T20:50:42.512Z,101108.66
2019-01-08T20:55:35.527Z,101103.27
2019-01-08T21:00:28.480Z,101114.23
2019-01-08T21:05:21.379Z,101108.03
2019-01-08T21:10:14.359Z,101101.06
2019-01-08T21:15:07.276Z,101103.77
2019-01-08T21:20:00.542Z,101104.37
2019-01-08T21:24:53.399Z,101100.01
2019-01-08T21:29:48.128Z,101103.29
2019-01-08T21:34:44.645Z,101097.35
2019-01-08T21:39:35.928Z,101105.11
2019-01-08T21:44:28.814Z,101102.89
2019-01-08T21:49:21.823Z,101112.13
2019-01-08T21:54:14.737Z,101107.56
2019-01-08T21:59:08.775Z,101109.63
2019-01-08T22:04:02.818Z,101107.33
2019-01-08T22:08:57.376Z,101104.81
2019-01-08T22:13:53.043Z,101107.88
2019-01-08T22:18:52.537Z,101109.04
2019-01-08T22:23:49.875Z,101105.42
2019-01-08T22:28:48.050Z,101095.13
2019-01-08T22:33:47.140Z,101093.02
2019-01-08T22:38:43.860Z,101088.93
2019-01-08T22:43:41.790Z,101091.46
2019-01-08T22:48:38.891Z,101094.05
2019-01-08T22:53:35.409Z,101085.70
2019-01-08T22:58:32.758Z,101069.80
2019-01-08T23:03:30.213Z,101070.34
2019-01-08T23:08:26.569Z,101051.84
2019-01-08T23:13:22.794Z,101074.78
2019-01-08T23:18:19.845Z,101066.34
2019-01-08T23:23:21.145Z,101068.55
2019-01-08T23:28:19.294Z,101066.06
2019-01-08T23:33:15.907Z,101063.28
2019-01-08T23:38:13.887Z,101050.05
2019-01-08T23:43:12.280Z,101051.03
2019-01-08T23:48:10.451Z,101044.80
2019-01-08T23:53:14.132Z,101043.73
2019-01-08T23:58:13.411Z,101050.31
